Lilydale, Minnesota
Current Conditions -  °F | °C
As of 12:53 PM on Sunday 23 Nov 2014 (Local Time) from KSTP Reporting Station
Moderate Fog Moderate Fog  
Wind Chill: 46°   Ceiling: 300
Heat Index: 46°   Visibility: 0.5mi
Dew Point: 46°   Wind: 3mph
Humidity: 100%   Direction: 300°WNW
Pressure: 29.41"   Gusts: NA
Location:  44.8976°N, 93.103°W
Report Text: KSTP 231853Z 30003KT 1/2SM FG BKN003 OVC007 08/08 A2941 RMK AO2 SLP961 T00780078 RVRNO
Loading
Personal Weather Stations






























Interactive Weather Map New forecast layout! Learn more

10-Day Weather Forecast

Advertisements
Track Severe Weather on mobile